Sopchoppy, Florida
Current Conditions -  °F | °C
As of 7:53 AM on Saturday 20 Dec 2014 (Local Time) from KTLH Reporting Station
Overcast Overcast  
Wind Chill: 12°   Ceiling: 8000
Heat Index: 12°   Visibility: 10mi
Dew Point:   Wind: 6mph
Humidity: 80%   Direction: 80°E
Pressure: 30.11"   Gusts: NA
Location:  30.06°N, 84.49°W
Report Text: KTLH 201253Z 08005KT 10SM OVC080 12/08 A3011 RMK AO2 SLP196 T01170083 $
Loading
Personal Weather Stations






























Interactive Weather Map New forecast layout! Learn more

10-Day Weather Forecast

Advertisements
Track Severe Weather on mobile